createdAt,value
2022-09-05T00:00:15.619Z,98027.00
2022-09-05T00:03:20.634Z,98057.00
2022-09-05T00:06:24.209Z,98046.00
2022-09-05T00:09:21.492Z,98051.00
2022-09-05T00:11:58.378Z,98041.00
2022-09-05T00:15:16.765Z,98053.00
2022-09-05T00:22:42.392Z,98034.00
2022-09-05T00:24:22.001Z,98041.00
2022-09-05T00:24:54.713Z,98032.00
2022-09-05T00:27:43.838Z,98035.00
2022-09-05T00:31:51.819Z,98033.00
2022-09-05T00:33:44.059Z,98035.00
2022-09-05T00:36:55.277Z,98026.00
2022-09-05T00:39:36.115Z,98030.00
2022-09-05T00:42:15.420Z,98029.00
2022-09-05T00:45:01.965Z,98027.00
2022-09-05T00:48:03.164Z,98024.00
2022-09-05T00:50:40.658Z,98033.00
2022-09-05T00:53:26.117Z,98023.00
2022-09-05T00:56:17.234Z,98029.00
2022-09-05T00:59:27.130Z,98032.00
2022-09-05T01:02:16.707Z,98014.00
2022-09-05T01:04:59.428Z,98028.00
2022-09-05T01:07:56.967Z,98036.00
2022-09-05T01:10:57.062Z,98041.00
2022-09-05T01:14:22.004Z,98033.00
2022-09-05T01:17:26.543Z,98043.00
2022-09-05T01:20:21.250Z,98038.00
2022-09-05T01:23:29.223Z,98033.00
2022-09-05T01:26:50.157Z,98031.00
2022-09-05T01:29:34.135Z,98040.00
2022-09-05T01:32:25.081Z,98040.00
2022-09-05T01:35:26.126Z,98028.00
2022-09-05T01:38:18.607Z,98026.00
2022-09-05T01:41:31.750Z,98044.00
2022-09-05T01:44:26.307Z,98037.00
2022-09-05T01:47:31.089Z,98018.00
2022-09-05T01:50:17.127Z,98038.00
2022-09-05T01:53:33.230Z,98028.00
2022-09-05T01:56:34.250Z,98012.00
2022-09-05T01:59:50.938Z,98025.00
2022-09-05T02:03:13.512Z,98022.00
2022-09-05T02:05:57.115Z,98027.00
2022-09-05T02:09:07.781Z,98028.00
2022-09-05T02:11:52.729Z,98036.00
2022-09-05T02:15:02.074Z,98024.00
2022-09-05T02:17:51.103Z,98023.00
2022-09-05T02:20:46.153Z,98029.00
2022-09-05T02:23:42.758Z,98031.00
2022-09-05T02:26:27.027Z,98032.00
2022-09-05T02:29:10.916Z,98017.00
2022-09-05T02:31:55.458Z,98024.00
2022-09-05T02:34:41.349Z,98031.00
2022-09-05T02:40:32.611Z,98028.00
2022-09-05T02:45:11.753Z,98025.00
2022-09-05T02:45:13.704Z,98028.00
2022-09-05T02:47:37.741Z,98016.00
2022-09-05T02:57:29.200Z,98018.00
2022-09-05T02:57:34.045Z,98018.00
2022-09-05T02:57:42.486Z,98025.00
2022-09-05T03:00:13.579Z,98033.00
2022-09-05T03:03:18.730Z,98017.00
2022-09-05T03:06:04.482Z,98015.00
2022-09-05T03:09:28.296Z,98016.00
2022-09-05T03:12:28.846Z,98028.00
2022-09-05T03:15:43.278Z,98007.00
2022-09-05T03:19:07.950Z,98009.00
2022-09-05T03:22:41.076Z,98027.00
2022-09-05T03:25:31.190Z,98018.00
2022-09-05T03:29:00.655Z,98024.00
2022-09-05T03:31:56.772Z,98013.00
2022-09-05T03:34:48.358Z,98014.00
2022-09-05T03:37:17.898Z,98012.00
2022-09-05T03:40:15.675Z,98027.00
2022-09-05T03:43:23.030Z,98021.00
2022-09-05T03:46:18.053Z,98031.00
2022-09-05T03:50:09.467Z,98032.00
2022-09-05T03:57:08.044Z,98028.00
2022-09-05T03:57:27.198Z,98018.00
2022-09-05T04:00:02.492Z,98026.00
2022-09-05T04:08:08.970Z,98039.00
2022-09-05T04:08:14.407Z,98031.00
2022-09-05T04:09:09.651Z,98028.00
2022-09-05T04:12:09.701Z,98032.00
2022-09-05T04:14:58.307Z,98029.00
2022-09-05T04:18:03.765Z,98035.00
2022-09-05T04:21:01.804Z,98031.00
2022-09-05T04:24:09.584Z,98028.00
2022-09-05T04:27:20.953Z,98038.00
2022-09-05T04:30:00.363Z,98041.00
2022-09-05T04:33:08.229Z,98037.00
2022-09-05T04:36:17.869Z,98037.00
2022-09-05T04:38:46.236Z,98037.00
2022-09-05T04:41:16.891Z,98040.00
2022-09-05T04:44:10.856Z,98031.00
2022-09-05T04:46:48.758Z,98043.00
2022-09-05T04:49:33.114Z,98040.00
2022-09-05T04:52:09.750Z,98042.00
2022-09-05T04:55:14.050Z,98051.00
2022-09-05T04:58:07.055Z,98049.00
2022-09-05T05:05:59.953Z,98053.00
2022-09-05T05:06:09.090Z,98055.00
2022-09-05T05:06:42.274Z,98060.00
2022-09-05T05:09:38.136Z,98043.00
2022-09-05T05:17:40.367Z,98050.00
2022-09-05T05:18:06.383Z,98055.00
2022-09-05T05:19:03.012Z,98065.00
2022-09-05T05:21:33.300Z,98063.00
2022-09-05T05:24:02.057Z,98057.00
2022-09-05T05:26:42.570Z,98061.00
2022-09-05T05:29:24.201Z,98072.00
2022-09-05T05:32:01.000Z,98069.00
2022-09-05T05:34:41.287Z,98072.00
2022-09-05T05:37:43.362Z,98062.00
2022-09-05T05:40:17.317Z,98056.00
2022-09-05T05:42:46.715Z,98053.00
2022-09-05T05:45:19.267Z,98042.00
2022-09-05T05:47:54.419Z,98047.00
2022-09-05T05:51:03.201Z,98063.00
2022-09-05T05:53:53.694Z,98055.00
2022-09-05T05:56:57.600Z,98070.00
2022-09-05T05:59:32.399Z,98075.00
2022-09-05T06:02:17.384Z,98076.00
2022-09-05T06:05:24.079Z,98067.00
2022-09-05T06:12:53.585Z,98070.00
2022-09-05T06:15:05.252Z,98068.00
2022-09-05T06:15:36.972Z,98065.00
2022-09-05T06:18:57.505Z,98067.00
2022-09-05T06:22:14.773Z,98062.00
2022-09-05T06:25:21.817Z,98063.00
2022-09-05T06:28:18.751Z,98074.00
2022-09-05T06:31:29.580Z,98061.00
2022-09-05T06:34:32.654Z,98071.00
2022-09-05T06:37:25.761Z,98061.00
2022-09-05T06:40:28.017Z,98069.00
2022-09-05T06:43:24.718Z,98074.00
2022-09-05T06:46:15.929Z,98069.00
2022-09-05T06:49:38.722Z,98077.00
2022-09-05T06:53:10.948Z,98084.00
2022-09-05T06:56:25.389Z,98081.00
2022-09-05T06:59:24.129Z,98063.00
2022-09-05T07:02:12.189Z,98065.00
2022-09-05T07:05:37.674Z,98067.00
2022-09-05T07:08:36.461Z,98054.00
2022-09-05T07:11:35.369Z,98069.00
2022-09-05T07:14:37.878Z,98057.00
2022-09-05T07:17:26.601Z,98063.00
2022-09-05T07:20:01.856Z,98074.00
2022-09-05T07:22:47.495Z,98070.00
2022-09-05T07:25:31.628Z,98071.00
2022-09-05T07:28:29.162Z,98070.00
2022-09-05T07:31:06.990Z,98072.00
2022-09-05T07:33:39.776Z,98063.00
2022-09-05T07:36:19.197Z,98085.00
2022-09-05T07:39:02.346Z,98072.00
2022-09-05T07:41:42.250Z,98069.00
2022-09-05T07:44:34.591Z,98060.00
2022-09-05T07:47:42.623Z,98071.00
2022-09-05T07:54:06.032Z,98070.00
2022-09-05T07:57:01.852Z,98062.00
2022-09-05T07:57:06.383Z,98078.00
2022-09-05T07:58:53.080Z,98061.00
2022-09-05T08:01:22.752Z,98058.00
2022-09-05T08:03:56.034Z,98068.00
2022-09-05T08:06:41.488Z,98064.00
2022-09-05T08:10:05.995Z,98050.00
2022-09-05T08:13:23.773Z,98061.00
2022-09-05T08:15:39.694Z,98055.00
2022-09-05T08:18:42.684Z,98054.00
2022-09-05T08:21:28.149Z,98059.00
2022-09-05T08:24:24.851Z,98059.00
2022-09-05T08:27:16.474Z,98063.00
2022-09-05T08:30:26.823Z,98046.00
2022-09-05T08:33:22.049Z,98049.00
2022-09-05T08:36:05.025Z,98034.00
2022-09-05T08:38:38.758Z,98047.00
2022-09-05T08:41:17.418Z,98045.00
2022-09-05T08:46:40.242Z,98052.00
2022-09-05T08:47:25.212Z,98037.00
2022-09-05T08:50:26.865Z,98044.00
2022-09-05T08:53:32.519Z,98036.00
2022-09-05T08:56:10.293Z,98040.00
2022-09-05T08:59:27.531Z,98029.00
2022-09-05T09:02:47.332Z,98029.00
2022-09-05T09:06:12.121Z,98018.00
2022-09-05T09:09:10.953Z,98018.00
2022-09-05T09:11:45.220Z,98017.00
2022-09-05T09:14:31.825Z,98016.00
2022-09-05T09:17:34.494Z,98030.00
2022-09-05T09:20:31.190Z,98021.00
2022-09-05T09:23:38.984Z,98021.00
2022-09-05T09:26:15.784Z,98018.00
2022-09-05T09:29:08.122Z,98008.00
2022-09-05T09:31:56.212Z,98007.00
2022-09-05T09:34:45.734Z,98006.00
2022-09-05T09:37:50.684Z,97992.00
2022-09-05T09:41:09.129Z,97998.00
2022-09-05T09:44:08.652Z,98002.00
2022-09-05T09:46:50.670Z,97999.00
2022-09-05T09:49:54.833Z,97993.00
2022-09-05T09:53:06.816Z,97998.00
2022-09-05T09:56:13.337Z,97998.00
2022-09-05T09:59:23.897Z,98002.00
2022-09-05T10:04:31.330Z,97990.00
2022-09-05T10:10:40.320Z,97994.00
2022-09-05T10:11:07.996Z,97995.00
2022-09-05T10:13:15.353Z,97988.00
2022-09-05T10:16:27.644Z,97991.00
2022-09-05T10:22:59.262Z,97982.00
2022-09-05T10:26:01.292Z,97988.00
2022-09-05T10:29:36.647Z,97986.00
2022-09-05T10:35:05.712Z,97988.00
2022-09-05T10:35:24.633Z,97990.00
2022-09-05T10:38:04.371Z,97976.00
2022-09-05T10:41:14.617Z,97973.00
2022-09-05T10:43:36.104Z,97983.00
2022-09-05T10:46:10.351Z,97987.00
2022-09-05T10:48:53.592Z,97987.00
2022-09-05T10:51:37.746Z,97966.00
2022-09-05T10:55:14.747Z,97980.00
2022-09-05T10:58:35.289Z,97973.00
2022-09-05T11:02:20.978Z,97975.00
2022-09-05T11:05:12.820Z,97983.00
2022-09-05T11:08:09.882Z,97953.00
2022-09-05T11:11:26.078Z,97953.00
2022-09-05T11:14:26.828Z,97945.00
2022-09-05T11:17:10.107Z,97948.00
2022-09-05T11:19:55.298Z,97960.00
2022-09-05T11:22:28.452Z,97949.00
2022-09-05T11:25:15.020Z,97945.00
2022-09-05T11:27:53.388Z,97940.00
2022-09-05T11:30:30.009Z,97951.00
2022-09-05T11:39:50.313Z,97945.00
2022-09-05T11:40:00.057Z,97948.00
2022-09-05T11:40:28.870Z,97931.00
2022-09-05T11:43:28.869Z,97933.00
2022-09-05T11:46:38.854Z,97935.00
2022-09-05T11:49:37.071Z,97934.00
2022-09-05T11:52:22.071Z,97928.00
2022-09-05T11:55:32.993Z,97927.00
2022-09-05T11:58:43.522Z,97934.00
2022-09-05T12:02:24.120Z,97923.00
2022-09-05T12:05:49.348Z,97925.00
2022-09-05T12:08:35.165Z,97921.00
2022-09-05T12:11:52.056Z,97920.00
2022-09-05T12:15:04.394Z,97916.00
2022-09-05T12:18:03.612Z,97904.00
2022-09-05T12:21:00.728Z,97905.00
2022-09-05T12:25:15.499Z,97909.00
2022-09-05T12:27:40.624Z,97905.00
2022-09-05T12:30:03.824Z,97919.00
2022-09-05T12:33:50.757Z,97909.00
2022-09-05T12:36:07.610Z,97904.00
2022-09-05T12:40:58.518Z,97906.00
2022-09-05T12:42:13.889Z,97896.00
2022-09-05T12:44:46.550Z,97901.00
2022-09-05T12:47:21.173Z,97915.00
2022-09-05T12:50:14.931Z,97912.00
2022-09-05T12:52:52.162Z,97908.00
2022-09-05T12:55:33.725Z,97903.00
2022-09-05T13:03:01.949Z,97903.00
2022-09-05T13:03:03.263Z,97904.00
2022-09-05T13:04:27.161Z,97903.00
2022-09-05T13:07:11.920Z,97907.00
2022-09-05T13:11:54.389Z,97916.00
2022-09-05T13:15:01.966Z,97902.00
2022-09-05T13:15:52.270Z,97890.00
2022-09-05T13:18:30.757Z,97890.00
2022-09-05T13:21:23.054Z,97893.00
2022-09-05T13:24:12.062Z,97888.00
2022-09-05T13:26:52.062Z,97889.00
2022-09-05T13:29:25.323Z,97882.00
2022-09-05T13:38:03.158Z,97880.00
2022-09-05T13:38:12.951Z,97879.00
2022-09-05T13:38:47.496Z,97881.00
2022-09-05T13:41:28.308Z,97879.00
2022-09-05T13:44:00.266Z,97872.00
2022-09-05T13:47:29.995Z,97876.00
2022-09-05T13:50:30.873Z,97862.00
2022-09-05T13:53:27.403Z,97870.00
2022-09-05T13:56:13.123Z,97856.00
2022-09-05T13:58:54.426Z,97857.00
2022-09-05T14:02:29.105Z,97853.00
2022-09-05T14:05:20.828Z,97866.00
2022-09-05T14:08:33.679Z,97853.00
2022-09-05T14:11:45.002Z,97853.00
2022-09-05T14:20:28.627Z,97840.00
2022-09-05T14:23:07.639Z,97837.00
2022-09-05T14:25:40.464Z,97831.00
2022-09-05T14:28:38.577Z,97834.00
2022-09-05T14:35:23.487Z,97823.00
2022-09-05T14:37:39.023Z,97821.00
2022-09-05T14:38:14.524Z,97817.00
2022-09-05T14:41:44.193Z,97822.00
2022-09-05T14:44:46.486Z,97818.00
2022-09-05T14:47:40.655Z,97826.00
2022-09-05T14:50:49.536Z,97815.00
2022-09-05T14:56:46.462Z,97812.00
2022-09-05T15:02:51.033Z,97825.00
2022-09-05T15:03:00.244Z,97800.00
2022-09-05T15:05:28.752Z,97806.00
2022-09-05T15:09:50.893Z,97808.00
2022-09-05T15:12:16.422Z,97808.00
2022-09-05T15:14:10.001Z,97807.00
2022-09-05T15:16:43.588Z,97803.00
2022-09-05T15:19:11.798Z,97806.00
2022-09-05T15:21:41.282Z,97814.00
2022-09-05T15:24:30.180Z,97803.00
2022-09-05T15:27:02.595Z,97799.00
2022-09-05T15:29:35.439Z,97801.00
2022-09-05T15:32:26.259Z,97807.00
2022-09-05T15:34:59.071Z,97803.00
2022-09-05T15:37:43.086Z,97805.00
2022-09-05T15:40:22.590Z,97792.00
2022-09-05T15:43:02.001Z,97799.00
2022-09-05T15:45:35.134Z,97789.00
2022-09-05T15:48:26.473Z,97793.00
2022-09-05T15:51:17.281Z,97788.00
2022-09-05T15:53:44.360Z,97791.00
2022-09-05T15:56:11.233Z,97785.00
2022-09-05T15:58:56.405Z,97784.00
2022-09-05T16:01:59.006Z,97786.00
2022-09-05T16:10:27.773Z,97787.00
2022-09-05T16:10:40.242Z,97782.00
2022-09-05T16:10:57.378Z,97794.00
2022-09-05T16:13:17.788Z,97787.00
2022-09-05T16:21:49.742Z,97787.00
2022-09-05T16:23:26.017Z,97788.00
2022-09-05T16:23:26.564Z,97793.00
2022-09-05T16:24:57.908Z,97785.00
2022-09-05T16:28:02.985Z,97770.00
2022-09-05T16:30:36.282Z,97776.00
2022-09-05T16:33:19.274Z,97768.00
2022-09-05T16:36:04.686Z,97771.00
2022-09-05T16:38:55.513Z,97777.00
2022-09-05T16:41:46.951Z,97761.00
2022-09-05T16:44:54.530Z,97760.00
2022-09-05T16:47:27.634Z,97758.00
2022-09-05T16:50:34.239Z,97766.00
2022-09-05T16:53:47.415Z,97756.00
2022-09-05T16:56:41.513Z,97748.00
2022-09-05T16:59:26.624Z,97747.00
2022-09-05T17:02:27.838Z,97748.00
2022-09-05T17:05:43.566Z,97739.00
2022-09-05T17:08:29.730Z,97737.00
2022-09-05T17:11:12.249Z,97744.00
2022-09-05T17:13:57.444Z,97735.00
2022-09-05T17:16:41.393Z,97746.00
2022-09-05T17:19:22.384Z,97738.00
2022-09-05T17:24:02.088Z,97734.00
2022-09-05T17:29:34.130Z,97720.00
2022-09-05T17:29:37.962Z,97734.00
2022-09-05T17:31:50.866Z,97722.00
2022-09-05T17:33:45.647Z,97727.00
2022-09-05T17:36:22.274Z,97737.00
2022-09-05T17:39:44.333Z,97738.00
2022-09-05T17:42:34.211Z,97747.00
2022-09-05T17:45:44.940Z,97746.00
2022-09-05T17:48:36.305Z,97743.00
2022-09-05T17:51:03.375Z,97747.00
2022-09-05T17:53:33.349Z,97751.00
2022-09-05T17:56:01.359Z,97756.00
2022-09-05T17:58:49.521Z,97751.00
2022-09-05T18:01:26.634Z,97734.00
2022-09-05T18:04:16.035Z,97751.00
2022-09-05T18:06:59.563Z,97742.00
2022-09-05T18:09:37.137Z,97753.00
2022-09-05T18:13:12.599Z,97767.00
2022-09-05T18:15:29.563Z,97766.00
2022-09-05T18:18:42.304Z,97761.00
2022-09-05T18:21:21.693Z,97755.00
2022-09-05T18:24:05.289Z,97758.00
2022-09-05T18:26:46.194Z,97753.00
2022-09-05T18:29:58.025Z,97750.00
2022-09-05T18:32:54.189Z,97773.00
2022-09-05T18:36:25.745Z,97770.00
2022-09-05T18:39:23.232Z,97767.00
2022-09-05T18:42:26.094Z,97773.00
2022-09-05T18:45:14.644Z,97772.00
2022-09-05T18:47:59.112Z,97768.00
2022-09-05T18:50:35.187Z,97771.00
2022-09-05T18:53:10.421Z,97774.00
2022-09-05T18:56:13.054Z,97769.00
2022-09-05T18:59:24.186Z,97781.00
2022-09-05T19:02:44.174Z,97775.00
2022-09-05T19:05:16.879Z,97762.00
2022-09-05T19:07:50.191Z,97781.00
2022-09-05T19:10:34.603Z,97784.00
2022-09-05T19:13:23.943Z,97770.00
2022-09-05T19:16:34.910Z,97761.00
2022-09-05T19:19:18.617Z,97759.00
2022-09-05T19:21:56.256Z,97758.00
2022-09-05T19:24:44.780Z,97765.00
2022-09-05T19:27:16.178Z,97757.00
2022-09-05T19:36:54.642Z,97768.00
2022-09-05T19:36:55.836Z,97758.00
2022-09-05T19:37:14.646Z,97755.00
2022-09-05T19:40:20.507Z,97744.00
2022-09-05T19:47:34.344Z,97753.00
2022-09-05T19:47:39.302Z,97752.00
2022-09-05T19:50:29.944Z,97746.00
2022-09-05T19:53:07.214Z,97759.00
2022-09-05T19:55:37.864Z,97753.00
2022-09-05T19:58:18.871Z,97746.00
2022-09-05T20:01:01.261Z,97734.00
2022-09-05T20:03:39.376Z,97740.00
2022-09-05T20:06:29.917Z,97733.00
2022-09-05T20:09:30.188Z,97738.00
2022-09-05T20:11:59.737Z,97735.00
2022-09-05T20:14:36.548Z,97730.00
2022-09-05T20:17:28.705Z,97738.00
2022-09-05T20:20:09.151Z,97743.00
2022-09-05T20:22:48.535Z,97745.00
2022-09-05T20:25:39.894Z,97743.00
2022-09-05T20:28:17.884Z,97731.00
2022-09-05T20:30:50.841Z,97755.00
2022-09-05T20:33:51.976Z,97757.00
2022-09-05T20:40:16.622Z,97754.00
2022-09-05T20:43:22.130Z,97754.00
2022-09-05T20:43:35.415Z,97726.00
2022-09-05T20:46:05.253Z,97754.00
2022-09-05T20:54:20.747Z,97747.00
2022-09-05T20:54:21.532Z,97746.00
2022-09-05T20:54:36.086Z,97739.00
2022-09-05T20:57:23.186Z,97742.00
2022-09-05T20:59:50.104Z,97739.00
2022-09-05T21:02:27.893Z,97745.00
2022-09-05T21:05:06.745Z,97737.00
2022-09-05T21:07:59.233Z,97721.00
2022-09-05T21:10:55.060Z,97726.00
2022-09-05T21:13:51.860Z,97737.00
2022-09-05T21:16:27.037Z,97754.00
2022-09-05T21:18:54.130Z,97728.00
2022-09-05T21:21:32.185Z,97746.00
2022-09-05T21:24:15.878Z,97758.00
2022-09-05T21:26:49.889Z,97747.00
2022-09-05T21:29:26.481Z,97752.00
2022-09-05T21:32:02.427Z,97743.00
2022-09-05T21:34:45.247Z,97745.00
2022-09-05T21:37:15.770Z,97749.00
2022-09-05T21:40:00.144Z,97747.00
2022-09-05T21:45:38.505Z,97747.00
2022-09-05T21:47:49.163Z,97741.00
2022-09-05T21:48:15.757Z,97749.00
2022-09-05T21:50:49.615Z,97731.00
2022-09-05T21:55:14.806Z,97732.00
2022-09-05T21:59:18.012Z,97734.00
2022-09-05T21:59:41.577Z,97737.00
2022-09-05T22:02:13.456Z,97735.00
2022-09-05T22:04:41.711Z,97727.00
2022-09-05T22:07:19.589Z,97732.00
2022-09-05T22:09:59.025Z,97728.00
2022-09-05T22:12:36.717Z,97729.00
2022-09-05T22:15:28.881Z,97719.00
2022-09-05T22:18:16.537Z,97711.00
2022-09-05T22:21:17.486Z,97714.00
2022-09-05T22:23:39.529Z,97718.00
2022-09-05T22:26:06.815Z,97709.00
2022-09-05T22:28:38.243Z,97713.00
2022-09-05T22:31:07.857Z,97711.00
2022-09-05T22:33:35.874Z,97709.00
2022-09-05T22:36:03.538Z,97707.00
2022-09-05T22:38:30.702Z,97716.00
2022-09-05T22:40:57.624Z,97691.00
2022-09-05T22:43:25.619Z,97698.00
2022-09-05T22:45:56.221Z,97693.00
2022-09-05T22:48:24.131Z,97684.00
2022-09-05T22:50:51.131Z,97682.00
2022-09-05T22:53:18.477Z,97695.00
2022-09-05T22:55:45.359Z,97697.00
2022-09-05T22:58:15.134Z,97702.00
2022-09-05T23:00:44.474Z,97690.00
2022-09-05T23:03:11.507Z,97687.00
2022-09-05T23:05:39.236Z,97692.00
2022-09-05T23:08:06.786Z,97693.00
2022-09-05T23:10:35.477Z,97707.00
2022-09-05T23:13:10.319Z,97703.00
2022-09-05T23:15:37.987Z,97694.00
2022-09-05T23:18:05.672Z,97701.00
2022-09-05T23:20:33.965Z,97700.00
2022-09-05T23:23:05.554Z,97704.00
2022-09-05T23:25:34.035Z,97709.00
2022-09-05T23:28:09.277Z,97697.00
2022-09-05T23:30:38.359Z,97696.00
2022-09-05T23:33:08.088Z,97701.00
2022-09-05T23:35:36.492Z,97702.00
2022-09-05T23:38:09.050Z,97701.00
2022-09-05T23:40:36.083Z,97690.00
2022-09-05T23:43:04.085Z,97705.00
2022-09-05T23:45:31.676Z,97692.00
2022-09-05T23:47:59.421Z,97687.00
2022-09-05T23:50:28.385Z,97691.00
2022-09-05T23:52:55.503Z,97691.00
2022-09-05T23:55:23.377Z,97679.00
2022-09-05T23:57:57.156Z,97697.00
